Catron, Missouri
Current Conditions -  °F | °C
As of 9:53 PM on Saturday 22 Nov 2014 (Local Time) from KPOF Reporting Station
Clear Clear  
Wind Chill: 50°   Ceiling: Unl
Heat Index: 50°   Visibility: 10mi
Dew Point: 41°   Wind: 7mph
Humidity: 71%   Direction: 160°SSE
Pressure: 29.95"   Gusts: NA
Location:  36.61°N, 89.7°W
Report Text: KPOF 230353Z AUTO 16006KT 10SM CLR 10/05 A2995 RMK AO2 SLP141 T01000050
Loading
Personal Weather Stations






























Interactive Weather Map New forecast layout! Learn more

10-Day Weather Forecast

Advertisements
Track Severe Weather on mobile